sensor_id;sensor_type;location;lat;lon;timestamp;P1;durP1;ratioP1;P2;durP2;ratioP2
71878;SDS011;59755;43.834;4.364;2022-09-02T00:01:33;7.53;;;5.35;;
71878;SDS011;59755;43.834;4.364;2022-09-02T00:04:07;8.55;;;5.65;;
71878;SDS011;59755;43.834;4.364;2022-09-02T00:06:38;9.57;;;5.97;;
71878;SDS011;59755;43.834;4.364;2022-09-02T00:09:05;8.55;;;6.20;;
71878;SDS011;59755;43.834;4.364;2022-09-02T00:11:33;9.02;;;6.00;;
71878;SDS011;59755;43.834;4.364;2022-09-02T00:14:04;8.52;;;6.38;;
71878;SDS011;59755;43.834;4.364;2022-09-02T00:16:32;7.82;;;5.53;;
71878;SDS011;59755;43.834;4.364;2022-09-02T00:18:59;7.97;;;5.90;;
71878;SDS011;59755;43.834;4.364;2022-09-02T00:21:27;8.25;;;5.65;;
71878;SDS011;59755;43.834;4.364;2022-09-02T00:23:54;8.88;;;5.72;;
71878;SDS011;59755;43.834;4.364;2022-09-02T00:26:20;11.48;;;6.22;;
71878;SDS011;59755;43.834;4.364;2022-09-02T00:28:46;8.05;;;5.97;;
71878;SDS011;59755;43.834;4.364;2022-09-02T00:31:12;8.88;;;6.28;;
71878;SDS011;59755;43.834;4.364;2022-09-02T00:33:39;7.30;;;5.70;;
71878;SDS011;59755;43.834;4.364;2022-09-02T00:36:05;8.27;;;5.35;;
71878;SDS011;59755;43.834;4.364;2022-09-02T00:38:32;8.45;;;5.45;;
71878;SDS011;59755;43.834;4.364;2022-09-02T00:41:00;9.35;;;5.90;;
71878;SDS011;59755;43.834;4.364;2022-09-02T00:43:43;7.97;;;5.70;;
71878;SDS011;59755;43.834;4.364;2022-09-02T00:46:09;8.52;;;5.88;;
71878;SDS011;59755;43.834;4.364;2022-09-02T00:48:37;8.80;;;5.75;;
71878;SDS011;59755;43.834;4.364;2022-09-02T00:51:06;9.80;;;5.40;;
71878;SDS011;59755;43.834;4.364;2022-09-02T00:53:33;8.65;;;5.80;;
71878;SDS011;59755;43.834;4.364;2022-09-02T00:55:59;9.20;;;5.80;;
71878;SDS011;59755;43.834;4.364;2022-09-02T00:58:27;9.43;;;5.75;;
71878;SDS011;59755;43.834;4.364;2022-09-02T01:00:57;7.75;;;5.55;;
71878;SDS011;59755;43.834;4.364;2022-09-02T01:03:25;8.05;;;5.07;;
71878;SDS011;59755;43.834;4.364;2022-09-02T01:05:52;7.95;;;5.25;;
71878;SDS011;59755;43.834;4.364;2022-09-02T01:08:24;9.48;;;5.35;;
71878;SDS011;59755;43.834;4.364;2022-09-02T01:10:52;8.02;;;5.40;;
71878;SDS011;59755;43.834;4.364;2022-09-02T01:13:21;9.00;;;5.47;;
71878;SDS011;59755;43.834;4.364;2022-09-02T01:15:51;7.65;;;5.25;;
71878;SDS011;59755;43.834;4.364;2022-09-02T01:18:29;7.82;;;5.13;;
71878;SDS011;59755;43.834;4.364;2022-09-02T01:20:56;8.45;;;5.35;;
71878;SDS011;59755;43.834;4.364;2022-09-02T01:23:24;7.95;;;5.28;;
71878;SDS011;59755;43.834;4.364;2022-09-02T01:25:52;7.25;;;5.47;;
71878;SDS011;59755;43.834;4.364;2022-09-02T01:28:19;7.43;;;5.00;;
71878;SDS011;59755;43.834;4.364;2022-09-02T01:30:47;7.85;;;5.38;;
71878;SDS011;59755;43.834;4.364;2022-09-02T01:33:15;8.18;;;5.40;;
71878;SDS011;59755;43.834;4.364;2022-09-02T01:35:42;8.50;;;5.28;;
71878;SDS011;59755;43.834;4.364;2022-09-02T01:38:08;10.00;;;6.05;;
71878;SDS011;59755;43.834;4.364;2022-09-02T01:40:34;8.70;;;5.75;;
71878;SDS011;59755;43.834;4.364;2022-09-02T01:43:03;10.35;;;6.72;;
71878;SDS011;59755;43.834;4.364;2022-09-02T01:45:32;9.57;;;6.47;;
71878;SDS011;59755;43.834;4.364;2022-09-02T01:47:59;9.82;;;6.28;;
71878;SDS011;59755;43.834;4.364;2022-09-02T01:50:25;8.82;;;6.00;;
71878;SDS011;59755;43.834;4.364;2022-09-02T01:52:52;9.43;;;5.80;;
71878;SDS011;59755;43.834;4.364;2022-09-02T01:55:17;9.32;;;6.18;;
71878;SDS011;59755;43.834;4.364;2022-09-02T01:57:43;9.32;;;6.00;;
71878;SDS011;59755;43.834;4.364;2022-09-02T02:00:09;8.73;;;5.97;;
71878;SDS011;59755;43.834;4.364;2022-09-02T02:02:37;8.50;;;6.03;;
71878;SDS011;59755;43.834;4.364;2022-09-02T02:05:03;9.30;;;5.32;;
71878;SDS011;59755;43.834;4.364;2022-09-02T02:07:29;11.02;;;5.72;;
71878;SDS011;59755;43.834;4.364;2022-09-02T02:09:55;7.80;;;5.55;;
71878;SDS011;59755;43.834;4.364;2022-09-02T02:12:21;8.75;;;6.28;;
71878;SDS011;59755;43.834;4.364;2022-09-02T02:14:46;10.98;;;6.15;;
71878;SDS011;59755;43.834;4.364;2022-09-02T02:17:12;7.93;;;6.05;;
71878;SDS011;59755;43.834;4.364;2022-09-02T02:19:38;7.43;;;5.45;;
71878;SDS011;59755;43.834;4.364;2022-09-02T02:22:04;8.38;;;5.57;;
71878;SDS011;59755;43.834;4.364;2022-09-02T02:24:30;9.20;;;5.65;;
71878;SDS011;59755;43.834;4.364;2022-09-02T02:26:56;8.90;;;5.30;;
71878;SDS011;59755;43.834;4.364;2022-09-02T02:29:21;7.47;;;4.90;;
71878;SDS011;59755;43.834;4.364;2022-09-02T02:31:48;7.75;;;5.10;;
71878;SDS011;59755;43.834;4.364;2022-09-02T02:34:14;7.35;;;5.30;;
71878;SDS011;59755;43.834;4.364;2022-09-02T02:36:40;6.90;;;4.90;;
71878;SDS011;59755;43.834;4.364;2022-09-02T02:39:06;8.65;;;5.47;;
71878;SDS011;59755;43.834;4.364;2022-09-02T02:41:34;7.68;;;5.05;;
71878;SDS011;59755;43.834;4.364;2022-09-02T02:44:01;7.78;;;4.90;;
71878;SDS011;59755;43.834;4.364;2022-09-02T02:46:27;8.60;;;5.30;;
71878;SDS011;59755;43.834;4.364;2022-09-02T02:48:55;8.90;;;5.80;;
71878;SDS011;59755;43.834;4.364;2022-09-02T02:51:23;9.13;;;5.60;;
71878;SDS011;59755;43.834;4.364;2022-09-02T02:53:49;10.45;;;5.57;;
71878;SDS011;59755;43.834;4.364;2022-09-02T02:56:15;7.38;;;5.20;;
71878;SDS011;59755;43.834;4.364;2022-09-02T02:58:41;9.45;;;5.60;;
71878;SDS011;59755;43.834;4.364;2022-09-02T03:01:07;10.05;;;5.90;;
71878;SDS011;59755;43.834;4.364;2022-09-02T03:03:33;8.68;;;5.90;;
71878;SDS011;59755;43.834;4.364;2022-09-02T03:05:59;9.48;;;5.65;;
71878;SDS011;59755;43.834;4.364;2022-09-02T03:08:25;9.38;;;5.78;;
71878;SDS011;59755;43.834;4.364;2022-09-02T03:10:52;7.75;;;5.50;;
71878;SDS011;59755;43.834;4.364;2022-09-02T03:13:23;7.60;;;5.57;;
71878;SDS011;59755;43.834;4.364;2022-09-02T03:15:50;7.93;;;5.32;;
71878;SDS011;59755;43.834;4.364;2022-09-02T03:18:16;7.88;;;5.38;;
71878;SDS011;59755;43.834;4.364;2022-09-02T03:20:43;8.00;;;5.53;;
71878;SDS011;59755;43.834;4.364;2022-09-02T03:23:09;7.55;;;5.22;;
71878;SDS011;59755;43.834;4.364;2022-09-02T03:25:36;8.98;;;4.57;;
71878;SDS011;59755;43.834;4.364;2022-09-02T03:28:04;9.02;;;5.00;;
71878;SDS011;59755;43.834;4.364;2022-09-02T03:30:30;8.50;;;5.05;;
71878;SDS011;59755;43.834;4.364;2022-09-02T03:32:58;8.38;;;4.88;;
71878;SDS011;59755;43.834;4.364;2022-09-02T03:35:25;6.75;;;4.50;;
71878;SDS011;59755;43.834;4.364;2022-09-02T03:37:52;8.85;;;5.05;;
71878;SDS011;59755;43.834;4.364;2022-09-02T03:40:21;8.27;;;5.10;;
71878;SDS011;59755;43.834;4.364;2022-09-02T03:42:49;8.75;;;5.22;;
71878;SDS011;59755;43.834;4.364;2022-09-02T03:45:16;7.28;;;4.93;;
71878;SDS011;59755;43.834;4.364;2022-09-02T03:47:43;9.52;;;5.70;;
71878;SDS011;59755;43.834;4.364;2022-09-02T03:50:25;9.15;;;5.47;;
71878;SDS011;59755;43.834;4.364;2022-09-02T03:52:54;7.95;;;5.53;;
71878;SDS011;59755;43.834;4.364;2022-09-02T03:55:21;10.48;;;5.78;;
71878;SDS011;59755;43.834;4.364;2022-09-02T03:57:48;8.10;;;4.95;;
71878;SDS011;59755;43.834;4.364;2022-09-02T04:00:15;8.43;;;5.15;;
71878;SDS011;59755;43.834;4.364;2022-09-02T04:02:41;7.10;;;4.68;;
71878;SDS011;59755;43.834;4.364;2022-09-02T04:05:07;8.40;;;4.50;;
71878;SDS011;59755;43.834;4.364;2022-09-02T04:07:33;7.88;;;4.30;;
71878;SDS011;59755;43.834;4.364;2022-09-02T04:09:59;7.47;;;4.28;;
71878;SDS011;59755;43.834;4.364;2022-09-02T04:12:26;7.78;;;4.13;;
71878;SDS011;59755;43.834;4.364;2022-09-02T04:14:54;9.05;;;4.43;;
71878;SDS011;59755;43.834;4.364;2022-09-02T04:17:20;7.28;;;4.53;;
71878;SDS011;59755;43.834;4.364;2022-09-02T04:19:45;8.57;;;4.70;;
71878;SDS011;59755;43.834;4.364;2022-09-02T04:22:11;6.85;;;4.35;;
71878;SDS011;59755;43.834;4.364;2022-09-02T04:24:37;8.60;;;4.45;;
71878;SDS011;59755;43.834;4.364;2022-09-02T04:27:03;7.90;;;4.28;;
71878;SDS011;59755;43.834;4.364;2022-09-02T04:29:29;7.85;;;4.93;;
71878;SDS011;59755;43.834;4.364;2022-09-02T04:31:55;7.43;;;4.68;;
71878;SDS011;59755;43.834;4.364;2022-09-02T04:34:23;7.93;;;4.90;;
71878;SDS011;59755;43.834;4.364;2022-09-02T04:36:49;8.65;;;5.20;;
71878;SDS011;59755;43.834;4.364;2022-09-02T04:39:15;8.30;;;5.25;;
71878;SDS011;59755;43.834;4.364;2022-09-02T04:41:41;9.68;;;5.55;;
71878;SDS011;59755;43.834;4.364;2022-09-02T04:44:07;8.63;;;5.35;;
71878;SDS011;59755;43.834;4.364;2022-09-02T04:46:33;8.27;;;5.50;;
71878;SDS011;59755;43.834;4.364;2022-09-02T04:48:58;9.32;;;5.40;;
71878;SDS011;59755;43.834;4.364;2022-09-02T04:51:25;8.02;;;5.60;;
71878;SDS011;59755;43.834;4.364;2022-09-02T04:53:51;7.90;;;5.22;;
71878;SDS011;59755;43.834;4.364;2022-09-02T04:56:19;10.98;;;5.47;;
71878;SDS011;59755;43.834;4.364;2022-09-02T04:58:46;10.18;;;6.00;;
71878;SDS011;59755;43.834;4.364;2022-09-02T05:01:18;10.52;;;5.63;;
71878;SDS011;59755;43.834;4.364;2022-09-02T05:03:46;10.18;;;5.28;;
71878;SDS011;59755;43.834;4.364;2022-09-02T05:06:14;10.48;;;4.82;;
71878;SDS011;59755;43.834;4.364;2022-09-02T05:08:42;7.72;;;5.18;;
71878;SDS011;59755;43.834;4.364;2022-09-02T05:11:12;7.65;;;4.80;;
71878;SDS011;59755;43.834;4.364;2022-09-02T05:13:42;8.93;;;4.57;;
71878;SDS011;59755;43.834;4.364;2022-09-02T05:16:08;6.80;;;4.40;;
71878;SDS011;59755;43.834;4.364;2022-09-02T05:18:34;8.07;;;4.43;;
71878;SDS011;59755;43.834;4.364;2022-09-02T05:21:04;7.90;;;4.53;;
71878;SDS011;59755;43.834;4.364;2022-09-02T05:23:30;8.43;;;4.53;;
71878;SDS011;59755;43.834;4.364;2022-09-02T05:25:56;8.63;;;4.43;;
71878;SDS011;59755;43.834;4.364;2022-09-02T05:28:22;7.15;;;4.43;;
71878;SDS011;59755;43.834;4.364;2022-09-02T05:30:47;7.75;;;4.45;;
71878;SDS011;59755;43.834;4.364;2022-09-02T05:33:13;7.07;;;4.32;;
71878;SDS011;59755;43.834;4.364;2022-09-02T05:35:40;7.47;;;4.50;;
71878;SDS011;59755;43.834;4.364;2022-09-02T05:38:07;7.95;;;4.97;;
71878;SDS011;59755;43.834;4.364;2022-09-02T05:40:34;10.05;;;4.82;;
71878;SDS011;59755;43.834;4.364;2022-09-02T05:43:02;7.78;;;4.43;;
71878;SDS011;59755;43.834;4.364;2022-09-02T05:45:28;8.20;;;5.03;;
71878;SDS011;59755;43.834;4.364;2022-09-02T05:47:53;8.32;;;4.53;;
71878;SDS011;59755;43.834;4.364;2022-09-02T05:50:19;8.70;;;4.65;;
71878;SDS011;59755;43.834;4.364;2022-09-02T05:52:45;11.70;;;5.13;;
71878;SDS011;59755;43.834;4.364;2022-09-02T05:55:15;9.60;;;4.35;;
71878;SDS011;59755;43.834;4.364;2022-09-02T05:57:41;7.90;;;4.88;;
71878;SDS011;59755;43.834;4.364;2022-09-02T06:00:07;9.10;;;4.93;;
71878;SDS011;59755;43.834;4.364;2022-09-02T06:02:33;10.50;;;4.95;;
71878;SDS011;59755;43.834;4.364;2022-09-02T06:04:59;10.82;;;5.53;;
71878;SDS011;59755;43.834;4.364;2022-09-02T06:07:25;9.20;;;4.78;;
71878;SDS011;59755;43.834;4.364;2022-09-02T06:09:51;7.90;;;4.82;;
71878;SDS011;59755;43.834;4.364;2022-09-02T06:12:17;9.57;;;5.18;;
71878;SDS011;59755;43.834;4.364;2022-09-02T06:14:44;9.23;;;5.63;;
71878;SDS011;59755;43.834;4.364;2022-09-02T06:17:13;9.00;;;5.68;;
71878;SDS011;59755;43.834;4.364;2022-09-02T06:19:39;10.85;;;5.47;;
71878;SDS011;59755;43.834;4.364;2022-09-02T06:22:05;8.35;;;5.03;;
71878;SDS011;59755;43.834;4.364;2022-09-02T06:24:31;11.35;;;5.47;;
71878;SDS011;59755;43.834;4.364;2022-09-02T06:26:57;9.23;;;5.28;;
71878;SDS011;59755;43.834;4.364;2022-09-02T06:29:24;9.73;;;5.20;;
71878;SDS011;59755;43.834;4.364;2022-09-02T06:31:50;9.40;;;5.20;;
71878;SDS011;59755;43.834;4.364;2022-09-02T06:34:18;10.18;;;5.38;;
71878;SDS011;59755;43.834;4.364;2022-09-02T06:36:45;10.05;;;5.50;;
71878;SDS011;59755;43.834;4.364;2022-09-02T06:39:14;12.55;;;5.20;;
71878;SDS011;59755;43.834;4.364;2022-09-02T06:41:42;11.45;;;5.03;;
71878;SDS011;59755;43.834;4.364;2022-09-02T06:44:11;8.30;;;4.57;;
71878;SDS011;59755;43.834;4.364;2022-09-02T06:46:38;12.80;;;5.32;;
71878;SDS011;59755;43.834;4.364;2022-09-02T06:49:07;10.82;;;4.32;;
71878;SDS011;59755;43.834;4.364;2022-09-02T06:51:40;11.60;;;4.90;;
71878;SDS011;59755;43.834;4.364;2022-09-02T06:54:09;11.30;;;4.65;;
71878;SDS011;59755;43.834;4.364;2022-09-02T06:56:36;12.73;;;5.43;;
71878;SDS011;59755;43.834;4.364;2022-09-02T06:59:03;11.50;;;5.30;;
71878;SDS011;59755;43.834;4.364;2022-09-02T07:01:30;13.68;;;4.97;;
71878;SDS011;59755;43.834;4.364;2022-09-02T07:03:57;8.95;;;5.05;;
71878;SDS011;59755;43.834;4.364;2022-09-02T07:06:44;8.00;;;5.22;;
71878;SDS011;59755;43.834;4.364;2022-09-02T07:09:13;8.85;;;5.03;;
71878;SDS011;59755;43.834;4.364;2022-09-02T07:11:41;10.32;;;5.60;;
71878;SDS011;59755;43.834;4.364;2022-09-02T07:14:07;11.05;;;5.93;;
71878;SDS011;59755;43.834;4.364;2022-09-02T07:16:34;9.27;;;5.30;;
71878;SDS011;59755;43.834;4.364;2022-09-02T07:19:02;7.65;;;5.47;;
71878;SDS011;59755;43.834;4.364;2022-09-02T07:21:29;9.80;;;5.70;;
71878;SDS011;59755;43.834;4.364;2022-09-02T07:23:58;9.73;;;5.60;;
71878;SDS011;59755;43.834;4.364;2022-09-02T07:26:25;11.20;;;5.50;;
71878;SDS011;59755;43.834;4.364;2022-09-02T07:28:52;8.68;;;5.40;;
71878;SDS011;59755;43.834;4.364;2022-09-02T07:31:18;8.73;;;5.68;;
71878;SDS011;59755;43.834;4.364;2022-09-02T07:33:44;9.80;;;5.45;;
71878;SDS011;59755;43.834;4.364;2022-09-02T07:36:11;9.02;;;5.50;;
71878;SDS011;59755;43.834;4.364;2022-09-02T07:38:37;8.93;;;5.32;;
71878;SDS011;59755;43.834;4.364;2022-09-02T07:41:05;11.32;;;5.30;;
71878;SDS011;59755;43.834;4.364;2022-09-02T07:43:32;8.90;;;5.57;;
71878;SDS011;59755;43.834;4.364;2022-09-02T07:45:59;10.70;;;5.60;;
71878;SDS011;59755;43.834;4.364;2022-09-02T07:48:26;8.85;;;5.25;;
71878;SDS011;59755;43.834;4.364;2022-09-02T07:50:52;9.55;;;5.90;;
71878;SDS011;59755;43.834;4.364;2022-09-02T07:53:18;11.23;;;5.75;;
71878;SDS011;59755;43.834;4.364;2022-09-02T07:55:44;10.43;;;5.50;;
71878;SDS011;59755;43.834;4.364;2022-09-02T07:58:11;11.25;;;5.95;;
71878;SDS011;59755;43.834;4.364;2022-09-02T08:00:37;10.48;;;5.75;;
71878;SDS011;59755;43.834;4.364;2022-09-02T08:03:04;10.75;;;5.80;;
71878;SDS011;59755;43.834;4.364;2022-09-02T08:05:31;10.98;;;5.80;;
71878;SDS011;59755;43.834;4.364;2022-09-02T08:07:57;13.07;;;6.03;;
71878;SDS011;59755;43.834;4.364;2022-09-02T08:10:24;8.45;;;5.82;;
71878;SDS011;59755;43.834;4.364;2022-09-02T08:12:53;9.48;;;6.03;;
71878;SDS011;59755;43.834;4.364;2022-09-02T08:15:19;12.50;;;6.93;;
71878;SDS011;59755;43.834;4.364;2022-09-02T08:17:46;11.82;;;5.80;;
71878;SDS011;59755;43.834;4.364;2022-09-02T08:20:13;8.82;;;5.70;;
71878;SDS011;59755;43.834;4.364;2022-09-02T08:22:41;11.00;;;5.95;;
71878;SDS011;59755;43.834;4.364;2022-09-02T08:25:07;12.73;;;6.68;;
71878;SDS011;59755;43.834;4.364;2022-09-02T08:27:34;8.38;;;6.32;;
71878;SDS011;59755;43.834;4.364;2022-09-02T08:30:00;10.88;;;6.50;;
71878;SDS011;59755;43.834;4.364;2022-09-02T08:32:28;12.55;;;6.03;;
71878;SDS011;59755;43.834;4.364;2022-09-02T08:34:56;9.32;;;6.03;;
71878;SDS011;59755;43.834;4.364;2022-09-02T08:37:27;9.50;;;6.47;;
71878;SDS011;59755;43.834;4.364;2022-09-02T08:39:55;9.65;;;6.40;;
71878;SDS011;59755;43.834;4.364;2022-09-02T08:42:22;10.85;;;6.18;;
71878;SDS011;59755;43.834;4.364;2022-09-02T08:44:50;11.27;;;6.85;;
71878;SDS011;59755;43.834;4.364;2022-09-02T08:47:21;12.63;;;7.28;;
71878;SDS011;59755;43.834;4.364;2022-09-02T08:49:53;11.85;;;7.28;;
71878;SDS011;59755;43.834;4.364;2022-09-02T08:55:00;10.45;;;6.45;;
71878;SDS011;59755;43.834;4.364;2022-09-02T08:57:27;9.55;;;7.20;;
71878;SDS011;59755;43.834;4.364;2022-09-02T08:59:55;12.23;;;7.18;;
71878;SDS011;59755;43.834;4.364;2022-09-02T09:07:27;10.70;;;7.35;;
71878;SDS011;59755;43.834;4.364;2022-09-02T09:10:23;10.15;;;7.30;;
71878;SDS011;59755;43.834;4.364;2022-09-02T09:18:15;10.60;;;7.45;;
71878;SDS011;59755;43.834;4.364;2022-09-02T09:20:43;10.60;;;7.15;;
71878;SDS011;59755;43.834;4.364;2022-09-02T09:26:08;12.40;;;7.93;;
71878;SDS011;59755;43.834;4.364;2022-09-02T09:28:44;11.77;;;8.18;;
71878;SDS011;59755;43.834;4.364;2022-09-02T09:31:13;11.98;;;7.40;;
71878;SDS011;59755;43.834;4.364;2022-09-02T09:33:57;12.50;;;7.85;;
71878;SDS011;59755;43.834;4.364;2022-09-02T09:41:45;10.35;;;7.60;;
71878;SDS011;59755;43.834;4.364;2022-09-02T09:44:27;13.30;;;7.97;;
71878;SDS011;59755;43.834;4.364;2022-09-02T09:47:02;11.10;;;7.47;;
71878;SDS011;59755;43.834;4.364;2022-09-02T09:49:38;13.05;;;7.97;;
71878;SDS011;59755;43.834;4.364;2022-09-02T09:52:04;12.45;;;8.02;;
71878;SDS011;59755;43.834;4.364;2022-09-02T09:54:31;11.98;;;7.70;;
71878;SDS011;59755;43.834;4.364;2022-09-02T09:57:11;14.68;;;7.53;;
71878;SDS011;59755;43.834;4.364;2022-09-02T09:59:45;10.68;;;7.32;;
71878;SDS011;59755;43.834;4.364;2022-09-02T10:02:21;12.23;;;7.68;;
71878;SDS011;59755;43.834;4.364;2022-09-02T10:04:49;12.10;;;7.68;;
71878;SDS011;59755;43.834;4.364;2022-09-02T10:07:39;12.52;;;7.70;;
71878;SDS011;59755;43.834;4.364;2022-09-02T10:10:07;12.00;;;7.82;;
71878;SDS011;59755;43.834;4.364;2022-09-02T10:12:41;10.90;;;8.05;;
71878;SDS011;59755;43.834;4.364;2022-09-02T10:15:08;13.48;;;7.78;;
71878;SDS011;59755;43.834;4.364;2022-09-02T10:17:56;12.63;;;8.00;;
71878;SDS011;59755;43.834;4.364;2022-09-02T10:20:41;12.88;;;8.25;;
71878;SDS011;59755;43.834;4.364;2022-09-02T10:28:35;11.95;;;8.38;;
71878;SDS011;59755;43.834;4.364;2022-09-02T10:38:51;10.43;;;7.80;;
71878;SDS011;59755;43.834;4.364;2022-09-02T10:55:02;10.68;;;8.50;;
71878;SDS011;59755;43.834;4.364;2022-09-02T10:57:42;13.52;;;8.27;;
71878;SDS011;59755;43.834;4.364;2022-09-02T11:00:16;11.27;;;8.15;;
71878;SDS011;59755;43.834;4.364;2022-09-02T11:02:54;11.80;;;8.15;;
71878;SDS011;59755;43.834;4.364;2022-09-02T11:08:16;13.82;;;7.65;;
71878;SDS011;59755;43.834;4.364;2022-09-02T11:13:32;11.02;;;7.85;;
71878;SDS011;59755;43.834;4.364;2022-09-02T11:16:33;10.93;;;7.60;;
71878;SDS011;59755;43.834;4.364;2022-09-02T11:21:28;13.13;;;8.20;;
71878;SDS011;59755;43.834;4.364;2022-09-02T11:24:25;12.30;;;8.30;;
71878;SDS011;59755;43.834;4.364;2022-09-02T11:27:20;13.55;;;7.97;;
71878;SDS011;59755;43.834;4.364;2022-09-02T11:32:34;13.40;;;8.85;;
71878;SDS011;59755;43.834;4.364;2022-09-02T11:35:13;14.00;;;9.25;;
71878;SDS011;59755;43.834;4.364;2022-09-02T11:37:45;15.77;;;9.45;;
71878;SDS011;59755;43.834;4.364;2022-09-02T11:40:24;13.93;;;9.43;;
71878;SDS011;59755;43.834;4.364;2022-09-02T11:43:09;22.73;;;13.95;;
71878;SDS011;59755;43.834;4.364;2022-09-02T11:54:27;19.85;;;14.57;;
71878;SDS011;59755;43.834;4.364;2022-09-02T11:56:59;26.95;;;19.42;;
71878;SDS011;59755;43.834;4.364;2022-09-02T12:07:53;19.60;;;11.20;;
71878;SDS011;59755;43.834;4.364;2022-09-02T12:13:06;20.63;;;11.52;;
71878;SDS011;59755;43.834;4.364;2022-09-02T12:15:33;19.23;;;11.43;;
71878;SDS011;59755;43.834;4.364;2022-09-02T12:26:16;12.48;;;8.30;;
71878;SDS011;59755;43.834;4.364;2022-09-02T12:31:52;11.82;;;8.13;;
71878;SDS011;59755;43.834;4.364;2022-09-02T12:36:54;11.00;;;6.95;;
71878;SDS011;59755;43.834;4.364;2022-09-02T12:41:57;9.73;;;6.68;;
71878;SDS011;59755;43.834;4.364;2022-09-02T12:44:44;10.88;;;7.32;;
71878;SDS011;59755;43.834;4.364;2022-09-02T12:52:42;8.25;;;4.60;;
71878;SDS011;59755;43.834;4.364;2022-09-02T12:55:21;8.68;;;4.60;;
71878;SDS011;59755;43.834;4.364;2022-09-02T12:57:51;8.18;;;4.72;;
71878;SDS011;59755;43.834;4.364;2022-09-02T13:08:54;7.07;;;3.47;;
71878;SDS011;59755;43.834;4.364;2022-09-02T13:14:52;7.63;;;3.42;;
71878;SDS011;59755;43.834;4.364;2022-09-02T13:20:30;6.75;;;3.58;;
71878;SDS011;59755;43.834;4.364;2022-09-02T13:31:58;8.52;;;4.50;;
71878;SDS011;59755;43.834;4.364;2022-09-02T13:34:39;7.90;;;4.95;;
71878;SDS011;59755;43.834;4.364;2022-09-02T13:37:10;8.82;;;5.22;;
71878;SDS011;59755;43.834;4.364;2022-09-02T13:39:52;7.90;;;4.18;;
71878;SDS011;59755;43.834;4.364;2022-09-02T13:42:18;8.18;;;4.80;;
71878;SDS011;59755;43.834;4.364;2022-09-02T13:44:49;7.47;;;4.47;;
71878;SDS011;59755;43.834;4.364;2022-09-02T13:47:15;7.25;;;4.45;;
71878;SDS011;59755;43.834;4.364;2022-09-02T13:49:46;9.05;;;4.85;;
71878;SDS011;59755;43.834;4.364;2022-09-02T13:52:15;7.60;;;5.13;;
71878;SDS011;59755;43.834;4.364;2022-09-02T13:54:44;7.68;;;4.65;;
71878;SDS011;59755;43.834;4.364;2022-09-02T13:57:21;9.88;;;5.03;;
71878;SDS011;59755;43.834;4.364;2022-09-02T13:59:50;7.93;;;4.22;;
71878;SDS011;59755;43.834;4.364;2022-09-02T14:08:03;7.50;;;4.13;;
71878;SDS011;59755;43.834;4.364;2022-09-02T14:10:23;6.10;;;3.85;;
71878;SDS011;59755;43.834;4.364;2022-09-02T14:12:52;6.68;;;3.75;;
71878;SDS011;59755;43.834;4.364;2022-09-02T14:15:26;6.88;;;3.47;;
71878;SDS011;59755;43.834;4.364;2022-09-02T14:20:39;7.35;;;4.20;;
71878;SDS011;59755;43.834;4.364;2022-09-02T14:23:16;7.50;;;3.78;;
71878;SDS011;59755;43.834;4.364;2022-09-02T14:25:47;7.80;;;4.03;;
71878;SDS011;59755;43.834;4.364;2022-09-02T14:28:23;6.88;;;3.60;;
71878;SDS011;59755;43.834;4.364;2022-09-02T14:33:43;6.90;;;3.75;;
71878;SDS011;59755;43.834;4.364;2022-09-02T14:38:49;6.95;;;3.50;;
71878;SDS011;59755;43.834;4.364;2022-09-02T14:41:19;6.85;;;3.22;;
71878;SDS011;59755;43.834;4.364;2022-09-02T14:43:52;5.30;;;3.03;;
71878;SDS011;59755;43.834;4.364;2022-09-02T14:46:46;6.93;;;3.80;;
71878;SDS011;59755;43.834;4.364;2022-09-02T14:51:47;7.05;;;3.50;;
71878;SDS011;59755;43.834;4.364;2022-09-02T14:54:35;6.75;;;3.47;;
71878;SDS011;59755;43.834;4.364;2022-09-02T14:57:18;7.57;;;3.90;;
71878;SDS011;59755;43.834;4.364;2022-09-02T15:00:11;6.38;;;3.92;;
71878;SDS011;59755;43.834;4.364;2022-09-02T15:02:40;6.75;;;3.80;;
71878;SDS011;59755;43.834;4.364;2022-09-02T15:05:08;7.22;;;3.80;;
71878;SDS011;59755;43.834;4.364;2022-09-02T15:07:35;6.50;;;4.25;;
71878;SDS011;59755;43.834;4.364;2022-09-02T15:10:01;6.93;;;4.35;;
71878;SDS011;59755;43.834;4.364;2022-09-02T15:12:29;7.10;;;4.15;;
71878;SDS011;59755;43.834;4.364;2022-09-02T15:14:57;7.38;;;4.68;;
71878;SDS011;59755;43.834;4.364;2022-09-02T15:17:23;7.93;;;4.35;;
71878;SDS011;59755;43.834;4.364;2022-09-02T15:19:50;6.53;;;4.25;;
71878;SDS011;59755;43.834;4.364;2022-09-02T15:22:16;6.82;;;4.32;;
71878;SDS011;59755;43.834;4.364;2022-09-02T15:24:43;7.05;;;4.68;;
71878;SDS011;59755;43.834;4.364;2022-09-02T15:27:11;7.40;;;4.63;;
71878;SDS011;59755;43.834;4.364;2022-09-02T15:29:37;7.07;;;4.70;;
71878;SDS011;59755;43.834;4.364;2022-09-02T15:32:03;8.65;;;5.10;;
71878;SDS011;59755;43.834;4.364;2022-09-02T15:34:30;7.03;;;5.03;;
71878;SDS011;59755;43.834;4.364;2022-09-02T15:36:56;8.23;;;5.25;;
71878;SDS011;59755;43.834;4.364;2022-09-02T15:39:22;8.45;;;4.57;;
71878;SDS011;59755;43.834;4.364;2022-09-02T15:41:50;6.93;;;5.07;;
71878;SDS011;59755;43.834;4.364;2022-09-02T15:44:17;7.20;;;4.70;;
71878;SDS011;59755;43.834;4.364;2022-09-02T15:46:43;7.93;;;4.78;;
71878;SDS011;59755;43.834;4.364;2022-09-02T15:49:11;7.32;;;4.40;;
71878;SDS011;59755;43.834;4.364;2022-09-02T15:51:39;7.28;;;4.20;;
71878;SDS011;59755;43.834;4.364;2022-09-02T15:54:09;7.85;;;4.70;;
71878;SDS011;59755;43.834;4.364;2022-09-02T15:56:36;8.40;;;4.63;;
71878;SDS011;59755;43.834;4.364;2022-09-02T15:59:09;8.82;;;4.50;;
71878;SDS011;59755;43.834;4.364;2022-09-02T16:01:37;6.80;;;4.32;;
71878;SDS011;59755;43.834;4.364;2022-09-02T16:04:05;9.00;;;4.45;;
71878;SDS011;59755;43.834;4.364;2022-09-02T16:06:32;7.43;;;4.70;;
71878;SDS011;59755;43.834;4.364;2022-09-02T16:09:00;7.25;;;4.45;;
71878;SDS011;59755;43.834;4.364;2022-09-02T16:11:26;9.05;;;4.75;;
71878;SDS011;59755;43.834;4.364;2022-09-02T16:13:52;9.38;;;4.20;;
71878;SDS011;59755;43.834;4.364;2022-09-02T16:16:18;8.73;;;4.10;;
71878;SDS011;59755;43.834;4.364;2022-09-02T16:18:47;10.18;;;4.63;;
71878;SDS011;59755;43.834;4.364;2022-09-02T16:21:15;8.35;;;4.60;;
71878;SDS011;59755;43.834;4.364;2022-09-02T16:23:42;7.60;;;4.13;;
71878;SDS011;59755;43.834;4.364;2022-09-02T16:26:15;7.85;;;4.28;;
71878;SDS011;59755;43.834;4.364;2022-09-02T16:28:57;7.35;;;4.43;;
71878;SDS011;59755;43.834;4.364;2022-09-02T16:33:58;7.70;;;4.68;;
71878;SDS011;59755;43.834;4.364;2022-09-02T16:36:25;7.35;;;4.05;;
71878;SDS011;59755;43.834;4.364;2022-09-02T16:38:53;8.60;;;4.20;;
71878;SDS011;59755;43.834;4.364;2022-09-02T16:41:21;9.25;;;4.40;;
71878;SDS011;59755;43.834;4.364;2022-09-02T16:43:49;10.50;;;4.70;;
71878;SDS011;59755;43.834;4.364;2022-09-02T16:46:15;9.88;;;4.60;;
71878;SDS011;59755;43.834;4.364;2022-09-02T16:48:41;10.27;;;5.00;;
71878;SDS011;59755;43.834;4.364;2022-09-02T16:51:07;8.00;;;4.53;;
71878;SDS011;59755;43.834;4.364;2022-09-02T16:53:32;8.05;;;4.88;;
71878;SDS011;59755;43.834;4.364;2022-09-02T16:55:58;9.10;;;4.50;;
71878;SDS011;59755;43.834;4.364;2022-09-02T16:58:24;8.68;;;4.90;;
71878;SDS011;59755;43.834;4.364;2022-09-02T17:00:50;8.20;;;4.78;;
71878;SDS011;59755;43.834;4.364;2022-09-02T17:03:16;9.95;;;5.30;;
71878;SDS011;59755;43.834;4.364;2022-09-02T17:05:42;9.32;;;5.32;;
71878;SDS011;59755;43.834;4.364;2022-09-02T17:08:08;9.00;;;5.10;;
71878;SDS011;59755;43.834;4.364;2022-09-02T17:10:34;8.32;;;5.28;;
71878;SDS011;59755;43.834;4.364;2022-09-02T17:13:00;8.00;;;5.10;;
71878;SDS011;59755;43.834;4.364;2022-09-02T17:15:26;10.07;;;5.47;;
71878;SDS011;59755;43.834;4.364;2022-09-02T17:17:53;9.43;;;5.20;;